Time;durP1;ratioP1;P1;durP2;ratioP2;P2;SDS_P1;SDS_P2;PMS_P1;PMS_P2;Temp;Humidity;BMP_temperature;BMP_pressure;BME280_temperature;BME280_humidity;BME280_pressure;Samples;Min_cycle;Max_cycle;Signal;HPM_P1;HPM_P2
2021/04/05 00:00:15;;;;;;;6.70;2.72;;;;;;;19.44;59.33;101948.78;5028575;28;20096;-67
2021/04/05 00:02:41;;;;;;;8.32;2.78;;;;;;;19.44;59.10;101949.59;5009967;28;20136;-66
2021/04/05 00:05:10;;;;;;;6.55;2.38;;;;;;;19.42;59.35;101948.13;5011372;28;20141;-67
2021/04/05 00:07:35;;;;;;;6.40;2.47;;;;;;;19.42;59.21;101951.59;5028072;28;20498;-67
2021/04/05 00:10:07;;;;;;;7.70;2.10;;;;;;;19.41;58.87;101949.94;5028391;28;20091;-67
2021/04/05 00:12:32;;;;;;;5.43;2.38;;;;;;;19.42;59.00;101951.59;5028198;28;20048;-67
2021/04/05 00:14:58;;;;;;;5.55;2.22;;;;;;;19.41;59.02;101959.75;5027801;28;20029;-67
2021/04/05 00:17:23;;;;;;;5.95;2.15;;;;;;;19.41;59.50;101954.44;5027542;28;20059;-67
2021/04/05 00:19:49;;;;;;;5.38;2.53;;;;;;;19.40;59.09;101958.06;5028093;28;20037;-67
2021/04/05 00:22:14;;;;;;;5.00;2.10;;;;;;;19.39;59.05;101954.56;5011076;28;20039;-67
2021/04/05 00:24:40;;;;;;;6.15;2.38;;;;;;;19.39;58.85;101948.41;5011132;28;20229;-67
2021/04/05 00:27:06;;;;;;;6.00;1.92;;;;;;;19.39;59.33;101953.75;5008975;28;20156;-67
2021/04/05 00:29:31;;;;;;;5.53;2.63;;;;;;;19.38;58.82;101949.41;5028149;28;20036;-67
2021/04/05 00:31:57;;;;;;;6.85;2.30;;;;;;;19.37;59.29;101948.59;5009105;28;20396;-67
2021/04/05 00:34:22;;;;;;;6.20;2.20;;;;;;;19.37;58.98;101948.59;5029952;28;20477;-67
2021/04/05 00:36:48;;;;;;;7.18;2.05;;;;;;;19.38;58.93;101954.75;5009432;28;20064;-67
2021/04/05 00:39:14;;;;;;;5.95;1.90;;;;;;;19.37;59.01;101950.41;5027462;28;20039;-67
2021/04/05 00:41:40;;;;;;;7.38;2.00;;;;;;;19.36;59.06;101954.91;5027709;28;20528;-66
2021/04/05 00:44:06;;;;;;;4.72;1.90;;;;;;;19.37;58.77;101958.41;5035316;28;20044;-67
2021/04/05 00:46:31;;;;;;;5.85;2.10;;;;;;;19.37;58.86;101953.09;5026535;28;20405;-67
2021/04/05 00:48:58;;;;;;;5.95;1.90;;;;;;;19.36;59.16;101948.75;5027916;28;20117;-67
2021/04/05 00:51:26;;;;;;;5.07;1.98;;;;;;;19.36;58.61;101964.72;5026835;28;20463;-67
2021/04/05 00:53:52;;;;;;;4.63;2.13;;;;;;;19.36;58.98;101964.72;5032867;28;20032;-67
2021/04/05 00:56:21;;;;;;;5.55;1.83;;;;;;;19.35;59.01;101947.09;5032036;28;20033;-67
2021/04/05 00:58:49;;;;;;;5.68;2.00;;;;;;;19.34;59.37;101954.25;5008852;28;20029;-67
2021/04/05 01:01:19;;;;;;;5.18;1.85;;;;;;;19.35;59.07;101963.91;5028584;28;20037;-67
2021/04/05 01:03:45;;;;;;;4.55;1.95;;;;;;;19.34;59.21;101956.09;5026870;28;20121;-67
2021/04/05 01:06:15;;;;;;;6.80;1.83;;;;;;;19.34;59.43;101958.75;5035068;28;20068;-66
2021/04/05 01:08:41;;;;;;;4.03;1.98;;;;;;;19.33;59.29;101971.22;5033804;28;20807;-67
2021/04/05 01:11:10;;;;;;;4.00;1.55;;;;;;;19.33;59.09;101965.06;5040236;28;20039;-66
2021/04/05 01:13:35;;;;;;;5.13;1.77;;;;;;;19.33;59.19;101968.56;5013981;28;20065;-67
2021/04/05 01:16:01;;;;;;;5.57;1.80;;;;;;;19.32;59.40;101974.03;5030124;28;20472;-66
2021/04/05 01:18:28;;;;;;;4.20;1.60;;;;;;;19.33;59.29;101971.22;5049094;22;20152;-76
2021/04/05 01:20:55;;;;;;;3.20;1.70;;;;;;;19.31;59.51;101965.22;5031485;28;20055;-76
2021/04/05 01:23:21;;;;;;;3.95;1.58;;;;;;;19.32;59.49;101971.38;5040750;28;20033;-71
2021/04/05 01:25:47;;;;;;;4.45;1.83;;;;;;;19.32;59.20;101963.41;5037819;28;20041;-76
2021/04/05 01:28:13;;;;;;;4.82;1.73;;;;;;;19.32;59.59;101966.91;5040579;28;20041;-76
2021/04/05 01:30:41;;;;;;;5.20;1.63;;;;;;;19.31;59.54;101969.72;5036558;28;20033;-75
2021/04/05 01:33:22;;;;;;;3.63;1.83;;;;;;;19.29;59.30;101967.22;5037997;28;20063;-75
2021/04/05 01:35:55;;;;;;;3.88;1.90;;;;;;;19.30;59.29;101968.06;5026329;28;20109;-75
2021/04/05 01:38:37;;;;;;;4.60;1.80;;;;;;;19.28;59.02;101968.25;5032135;28;20045;-72
2021/04/05 01:41:13;;;;;;;4.97;2.05;;;;;;;19.31;59.33;101975.03;5039864;28;20040;-75
2021/04/05 01:43:39;;;;;;;4.93;1.75;;;;;;;19.29;59.18;101987.69;5029476;28;20052;-75
2021/04/05 01:46:06;;;;;;;5.43;1.67;;;;;;;19.29;59.33;101980.53;5031909;28;20469;-75
2021/04/05 01:48:32;;;;;;;5.28;1.80;;;;;;;19.29;59.23;101983.19;5036977;28;20433;-74
2021/04/05 01:50:59;;;;;;;5.47;1.90;;;;;;;19.28;59.15;101978.03;5033502;28;20048;-75
2021/04/05 01:53:25;;;;;;;4.68;1.63;;;;;;;19.28;59.25;101980.72;5032093;28;20129;-76
2021/04/05 01:55:51;;;;;;;3.10;1.85;;;;;;;19.27;59.13;101989.69;5030505;28;20042;-74
2021/04/05 01:58:19;;;;;;;5.03;1.67;;;;;;;19.27;59.07;101985.19;5038535;28;20040;-75
2021/04/05 02:00:48;;;;;;;5.38;1.80;;;;;;;19.27;59.04;101995.84;5030556;28;20092;-75
2021/04/05 02:03:14;;;;;;;4.70;1.70;;;;;;;19.27;58.95;101995.00;5034511;28;20036;-75
2021/04/05 02:06:04;;;;;;;5.07;1.83;;;;;;;19.23;58.78;101981.19;5031801;28;20037;-76
2021/04/05 02:08:30;;;;;;;4.57;1.73;;;;;;;19.26;58.60;101993.34;5016595;28;20080;-75
2021/04/05 02:11:05;;;;;;;7.10;1.77;;;;;;;19.25;58.89;101996.97;5011918;28;20048;-75
2021/04/05 02:13:30;;;;;;;4.90;1.90;;;;;;;19.25;58.56;101991.66;5023782;28;20021;-74
2021/04/05 02:15:56;;;;;;;3.60;1.70;;;;;;;19.24;58.51;101987.34;5016816;28;20091;-74
2021/04/05 02:18:23;;;;;;;5.40;1.90;;;;;;;19.24;58.65;101995.31;5029717;28;20388;-75
2021/04/05 02:20:49;;;;;;;3.75;1.75;;;;;;;19.24;58.77;101992.66;5034802;28;20044;-75
2021/04/05 02:23:17;;;;;;;5.93;1.70;;;;;;;19.24;58.49;101997.97;5030390;28;20477;-74
2021/04/05 02:28:30;;;;;;;4.70;1.90;;;;;;;19.23;58.58;102014.94;5037830;28;20114;-75
2021/04/05 02:30:57;;;;;;;4.05;1.73;;;;;;;19.22;58.31;102014.09;5009552;28;20049;-75
2021/04/05 02:33:23;;;;;;;5.18;1.90;;;;;;;19.23;58.39;102006.97;5036564;28;20551;-74
2021/04/05 02:35:49;;;;;;;4.55;2.10;;;;;;;19.22;58.29;102013.28;5036578;28;20034;-75
2021/04/05 02:38:15;;;;;;;3.42;1.40;;;;;;;19.22;58.73;102015.94;5018170;28;20813;-76
2021/04/05 02:40:42;;;;;;;5.43;1.77;;;;;;;19.22;58.33;102008.78;5028742;28;20041;-75
2021/04/05 02:43:10;;;;;;;4.05;1.70;;;;;;;19.22;58.60;101999.97;5035796;28;20037;-74
2021/04/05 02:45:36;;;;;;;5.70;1.92;;;;;;;19.21;58.74;102001.81;5029908;28;20033;-74
2021/04/05 02:48:02;;;;;;;4.50;1.95;;;;;;;19.22;58.34;101997.31;5028662;28;20037;-75
2021/04/05 02:50:30;;;;;;;4.53;1.60;;;;;;;19.21;58.49;102011.63;5029142;28;20116;-74
2021/04/05 02:53:00;;;;;;;4.53;1.80;;;;;;;19.21;58.07;102009.78;5032041;28;20028;-75
2021/04/05 02:55:27;;;;;;;6.10;2.10;;;;;;;19.21;58.18;102012.44;5028650;28;20025;-75
2021/04/05 02:57:53;;;;;;;3.90;1.80;;;;;;;19.20;58.20;102016.09;5029273;28;20060;-75
2021/04/05 03:00:20;;;;;;;4.75;1.73;;;;;;;19.20;58.36;102012.59;5029984;28;20040;-75
2021/04/05 03:02:48;;;;;;;4.55;1.88;;;;;;;19.20;58.02;102017.94;5011353;28;20972;-75
2021/04/05 03:05:17;;;;;;;5.68;1.80;;;;;;;19.18;58.34;102028.75;5035637;28;20065;-75
2021/04/05 03:07:43;;;;;;;3.72;1.70;;;;;;;19.18;58.44;102028.75;5028660;28;20032;-75
2021/04/05 03:10:11;;;;;;;4.13;1.80;;;;;;;19.18;58.05;102007.47;5030540;28;20037;-76
2021/04/05 03:12:42;;;;;;;3.85;1.70;;;;;;;19.17;58.13;102013.78;5026730;28;20068;-74
2021/04/05 03:15:13;;;;;;;5.63;2.00;;;;;;;19.18;58.17;102017.28;5039997;28;20714;-74
2021/04/05 03:17:39;;;;;;;3.67;2.10;;;;;;;19.19;58.38;102016.28;5010477;28;20087;-75
2021/04/05 03:20:18;;;;;;;5.53;2.13;;;;;;;19.15;58.18;102013.94;5030179;28;20141;-74
2021/04/05 03:22:44;;;;;;;3.42;1.30;;;;;;;19.17;58.42;102012.94;5029716;28;20072;-75
2021/04/05 03:25:21;;;;;;;4.00;1.70;;;;;;;19.16;58.00;102001.47;5028107;28;20060;-75
2021/04/05 03:27:48;;;;;;;4.97;2.10;;;;;;;19.17;58.23;101999.66;5032362;28;20481;-75
2021/04/05 03:30:23;;;;;;;5.07;1.52;;;;;;;19.14;58.35;102001.63;5032775;28;20041;-75
2021/04/05 03:33:03;;;;;;;6.35;1.85;;;;;;;19.15;57.91;102007.78;5036055;28;20040;-75
2021/04/05 03:35:36;;;;;;;4.88;1.95;;;;;;;19.15;58.32;102005.97;5028873;28;20037;-76
2021/04/05 03:38:02;;;;;;;4.72;2.03;;;;;;;19.17;58.40;102012.94;5027725;28;20083;-74
2021/04/05 03:40:29;;;;;;;6.07;1.83;;;;;;;19.16;58.14;102014.78;5030310;28;20119;-73
2021/04/05 03:43:10;;;;;;;5.50;1.90;;;;;;;19.14;58.44;102016.78;5029159;28;20099;-75
2021/04/05 03:45:57;;;;;;;4.20;2.15;;;;;;;19.13;58.00;102023.91;5027501;28;20041;-75
2021/04/05 03:48:41;;;;;;;4.25;1.80;;;;;;;19.14;58.33;102017.59;5029061;28;20029;-75
2021/04/05 03:51:12;;;;;;;5.53;1.95;;;;;;;19.14;58.00;102024.75;5029184;28;20037;-73
2021/04/05 03:53:45;;;;;;;4.75;1.80;;;;;;;19.13;58.28;102031.91;5029386;28;20038;-75
2021/04/05 03:56:16;;;;;;;4.93;1.77;;;;;;;19.13;57.99;102034.56;5028637;28;20488;-75
2021/04/05 03:58:47;;;;;;;4.55;1.90;;;;;;;19.12;57.76;102035.56;5028532;28;20060;-75
2021/04/05 04:01:18;;;;;;;4.40;2.00;;;;;;;19.13;57.83;102031.91;5029076;28;20468;-74
2021/04/05 04:04:10;;;;;;;4.72;1.75;;;;;;;19.14;57.90;102036.22;5032690;28;20361;-75
2021/04/05 04:07:18;;;;;;;6.00;2.00;;;;;;;19.14;58.14;102046.03;5014818;28;20125;-74
2021/04/05 04:09:22;;;;;;;4.05;1.75;;;;;;;19.13;58.04;102042.53;5017926;28;20129;-75
2021/04/05 04:11:51;;;;;;;4.65;1.67;;;;;;;19.13;58.10;102039.03;5009865;28;20136;-74
2021/04/05 04:14:18;;;;;;;4.28;2.08;;;;;;;19.12;57.69;102026.75;5030660;28;20029;-74
2021/04/05 04:16:47;;;;;;;5.65;1.85;;;;;;;19.12;58.20;102040.88;5028082;28;20057;-75
2021/04/05 04:19:14;;;;;;;5.63;2.10;;;;;;;19.12;58.12;102034.72;5029010;28;20040;-75
2021/04/05 04:21:43;;;;;;;3.60;1.75;;;;;;;19.10;57.83;102026.91;5027031;28;20048;-75
2021/04/05 04:24:09;;;;;;;3.95;1.70;;;;;;;19.11;58.09;102031.25;5014337;28;20037;-75
2021/04/05 04:26:35;;;;;;;5.88;1.98;;;;;;;19.10;58.01;102024.25;5028638;28;20048;-74
2021/04/05 04:29:01;;;;;;;5.30;1.88;;;;;;;19.12;57.55;102027.56;5027056;28;20029;-75
2021/04/05 04:31:27;;;;;;;5.50;2.13;;;;;;;19.10;57.72;102018.94;5029911;28;20396;-75
2021/04/05 04:33:52;;;;;;;5.68;1.80;;;;;;;19.09;57.72;102022.59;5030465;28;20386;-74
2021/04/05 04:36:22;;;;;;;4.63;1.73;;;;;;;19.08;57.56;102028.88;4994762;28;20041;-74
2021/04/05 04:38:51;;;;;;;4.53;1.88;;;;;;;19.10;57.43;102028.75;5028103;28;20036;-74
2021/04/05 04:41:29;;;;;;;5.78;2.30;;;;;;;19.07;57.53;102037.84;5010717;28;20033;-74
2021/04/05 04:44:04;;;;;;;4.25;1.98;;;;;;;19.07;57.65;102043.19;5031430;28;20045;-75
2021/04/05 04:46:30;;;;;;;5.60;2.03;;;;;;;19.08;57.64;102036.84;5028851;28;20108;-75
2021/04/05 04:49:01;;;;;;;5.00;1.92;;;;;;;19.07;57.57;102035.19;5026839;28;20041;-72
2021/04/05 04:51:28;;;;;;;4.95;2.00;;;;;;;19.09;57.58;102032.38;5028260;28;20045;-72
2021/04/05 04:53:55;;;;;;;4.38;1.70;;;;;;;19.09;57.88;102024.38;5026056;28;20061;-72
2021/04/05 04:56:21;;;;;;;5.57;1.95;;;;;;;19.08;57.84;102033.38;5031898;28;20051;-73
2021/04/05 04:58:47;;;;;;;5.05;2.05;;;;;;;19.07;57.82;102035.19;5026315;28;20113;-72
2021/04/05 05:01:13;;;;;;;5.68;1.80;;;;;;;19.06;57.91;102038.84;5028654;28;20116;-73
2021/04/05 05:03:43;;;;;;;5.32;2.10;;;;;;;19.07;57.43;102034.38;5027406;28;20480;-71
2021/04/05 05:06:12;;;;;;;4.05;1.88;;;;;;;19.07;57.71;102034.38;5015092;28;20448;-73
2021/04/05 05:08:37;;;;;;;4.88;2.00;;;;;;;19.07;57.82;102039.69;5030386;28;20030;-72
2021/04/05 05:11:05;;;;;;;5.57;1.92;;;;;;;19.05;57.30;102034.53;5027473;28;20091;-71
2021/04/05 05:13:30;;;;;;;5.03;1.98;;;;;;;19.06;57.69;102043.34;5027038;28;20026;-72
2021/04/05 05:15:56;;;;;;;5.00;1.70;;;;;;;19.06;57.31;102056.63;5023029;28;20264;-72
2021/04/05 05:18:23;;;;;;;4.00;1.90;;;;;;;19.06;57.25;102049.50;5028216;28;20061;-71
2021/04/05 05:20:48;;;;;;;4.72;1.92;;;;;;;19.05;57.21;102049.66;5029890;28;20042;-71
2021/04/05 05:23:16;;;;;;;3.80;1.70;;;;;;;19.05;57.39;102062.94;5010782;28;20388;-73
2021/04/05 05:25:43;;;;;;;3.25;1.70;;;;;;;19.04;57.21;102062.13;5025427;28;20025;-72
2021/04/05 05:28:09;;;;;;;3.90;1.80;;;;;;;19.04;57.67;102059.47;5009486;28;20049;-72
2021/04/05 05:30:36;;;;;;;3.42;1.70;;;;;;;19.04;57.38;102059.47;5027474;28;20033;-73
2021/04/05 05:33:04;;;;;;;4.15;1.77;;;;;;;19.04;57.42;102058.63;5037695;28;20087;-68
2021/04/05 05:35:32;;;;;;;5.43;1.90;;;;;;;19.04;57.46;102070.09;5022401;28;20037;-75
2021/04/05 05:38:03;;;;;;;4.78;1.95;;;;;;;19.03;57.29;102080.91;5026798;28;20113;-75
2021/04/05 05:40:31;;;;;;;4.13;1.60;;;;;;;19.03;56.95;102075.59;5027390;28;20068;-74
2021/04/05 05:43:02;;;;;;;5.40;1.90;;;;;;;19.01;57.07;102083.72;5031712;28;20036;-75
2021/04/05 05:45:57;;;;;;;4.45;1.50;;;;;;;19.00;56.99;102076.75;5027560;28;20029;-74
2021/04/05 05:48:43;;;;;;;3.85;1.90;;;;;;;18.99;57.00;102104.34;4986410;28;20049;-75
2021/04/05 05:51:35;;;;;;;4.07;1.65;;;;;;;18.99;57.11;102104.34;5016741;28;20041;-73
2021/04/05 05:54:36;;;;;;;6.00;1.90;;;;;;;19.01;56.97;102096.19;5026183;28;20464;-75
2021/04/05 05:57:28;;;;;;;4.50;1.98;;;;;;;18.99;56.86;102092.88;4990652;28;20454;-74
2021/04/05 06:00:21;;;;;;;7.43;1.77;;;;;;;18.98;57.10;102096.53;5031956;28;20141;-74
2021/04/05 06:03:17;;;;;;;5.38;1.70;;;;;;;18.97;57.15;102105.50;5010675;28;20044;-75
2021/04/05 06:06:03;;;;;;;5.15;1.92;;;;;;;18.97;57.27;102105.50;5026702;28;20034;-73
2021/04/05 06:08:41;;;;;;;5.35;1.80;;;;;;;18.98;56.83;102110.66;5021726;28;20123;-72
2021/04/05 06:11:23;;;;;;;3.85;1.77;;;;;;;18.97;56.72;102116.97;5012939;28;20116;-70
2021/04/05 06:14:03;;;;;;;4.30;1.60;;;;;;;18.98;56.71;102105.34;5030209;28;20041;-73
2021/04/05 06:17:10;;;;;;;5.80;1.95;;;;;;;18.95;57.12;102110.97;5019348;28;20075;-74
2021/04/05 06:19:51;;;;;;;5.63;1.65;;;;;;;18.95;56.90;102105.66;5037965;28;20453;-70
2021/04/05 06:22:38;;;;;;;6.00;1.90;;;;;;;18.94;56.95;102109.31;5030849;28;20028;-74
2021/04/05 06:25:18;;;;;;;4.72;1.77;;;;;;;18.95;56.63;102118.94;5030080;28;20071;-74
2021/04/05 06:28:14;;;;;;;3.67;1.70;;;;;;;18.94;56.88;102125.25;5022236;28;20061;-74
2021/04/05 06:30:57;;;;;;;5.43;1.75;;;;;;;18.94;56.60;102133.25;5035292;28;20037;-75
2021/04/05 06:33:33;;;;;;;4.47;1.70;;;;;;;18.95;56.56;102136.75;5034417;28;20469;-75
2021/04/05 06:36:34;;;;;;;4.65;1.90;;;;;;;18.93;56.98;102134.22;5029843;28;20025;-74
2021/04/05 06:39:08;;;;;;;4.63;1.75;;;;;;;18.94;56.44;102146.53;5025334;28;20065;-74
2021/04/05 06:41:33;;;;;;;5.85;1.83;;;;;;;18.94;56.53;102154.53;5032264;28;20045;-74
2021/04/05 06:44:29;;;;;;;4.88;2.00;;;;;;;18.92;56.66;102163.63;5028220;28;20038;-74
2021/04/05 06:47:32;;;;;;;5.32;1.83;;;;;;;18.92;56.51;102198.19;5029033;28;20449;-74
2021/04/05 06:50:28;;;;;;;6.47;2.08;;;;;;;18.90;56.42;102195.69;5029638;28;20064;-74
2021/04/05 06:53:12;;;;;;;18.52;2.95;;;;;;;18.94;56.62;102198.88;5029548;28;20129;-70
2021/04/05 06:55:57;;;;;;;13.13;2.35;;;;;;;18.92;57.20;102206.16;5030593;28;20075;-71
2021/04/05 06:58:25;;;;;;;10.15;2.10;;;;;;;18.94;57.15;102202.38;5026508;28;20366;-72
2021/04/05 07:01:29;;;;;;;9.30;1.95;;;;;;;18.94;57.29;102201.56;5034820;28;20065;-69
2021/04/05 07:04:03;;;;;;;7.65;1.80;;;;;;;18.96;57.63;102196.91;4997653;28;20877;-69
2021/04/05 07:06:41;;;;;;;4.95;1.70;;;;;;;18.95;57.54;102204.03;5025881;28;20065;-68
2021/04/05 07:09:34;;;;;;;7.72;2.10;;;;;;;18.95;57.65;102209.38;5026790;28;20042;-71
2021/04/05 07:12:12;;;;;;;14.37;2.13;;;;;;;18.97;57.65;102214.53;5005766;28;20111;-66
2021/04/05 07:15:15;;;;;;;10.88;1.90;;;;;;;18.97;57.77;102220.66;5026342;28;20017;-68
2021/04/05 07:17:59;;;;;;;9.82;2.25;;;;;;;18.98;57.96;102221.50;5023257;28;20080;-69
2021/04/05 07:20:31;;;;;;;;;;;;;;;18.95;57.76;102238.63;5027324;28;20052;-68
2021/04/05 07:23:09;;;;;;;6.25;1.80;;;;;;;19.00;57.99;102243.44;5016186;28;19913;-69
2021/04/05 07:26:16;;;;;;;8.02;2.00;;;;;;;18.99;58.05;102247.09;5024785;28;20092;-69
2021/04/05 07:28:54;;;;;;;7.13;1.75;;;;;;;18.99;58.41;102258.56;5026633;28;20025;-69
2021/04/05 07:31:58;;;;;;;8.13;1.80;;;;;;;18.99;58.20;102263.06;5030136;28;20059;-70
2021/04/05 07:34:49;;;;;;;6.57;1.73;;;;;;;18.99;58.53;102271.88;5027271;28;20043;-68
2021/04/05 07:37:48;;;;;;;6.55;1.50;;;;;;;18.99;58.29;102269.22;5019436;28;20065;-73
2021/04/05 07:40:35;;;;;;;4.30;1.52;;;;;;;18.99;58.55;102271.88;5024516;28;20034;-70
2021/04/05 07:43:03;;;;;;;6.97;1.92;;;;;;;19.01;58.87;102269.88;5017903;28;20395;-71
2021/04/05 07:45:49;;;;;;;5.05;1.60;;;;;;;19.00;59.05;102270.88;5039658;28;20033;-71
2021/04/05 07:48:32;;;;;;;7.82;1.52;;;;;;;19.00;58.96;102270.88;5025946;28;20041;-69
2021/04/05 07:51:19;;;;;;;12.73;2.40;;;;;;;19.00;59.21;102276.19;5020780;28;21475;-69
2021/04/05 07:54:05;;;;;;;7.45;1.90;;;;;;;19.00;59.24;102276.19;5027204;28;20033;-69
2021/04/05 07:56:46;;;;;;;7.93;1.75;;;;;;;19.01;59.57;102293.00;5014738;28;20051;-70
2021/04/05 07:59:24;;;;;;;5.35;1.40;;;;;;;19.03;59.74;102309.63;5035886;28;20040;-66
2021/04/05 08:01:51;;;;;;;9.57;2.50;;;;;;;19.04;59.91;102300.66;5025634;28;20377;-74
2021/04/05 08:04:27;;;;;;;5.28;1.92;;;;;;;19.02;59.90;102314.09;5024395;28;20029;-71
2021/04/05 08:06:53;;;;;;;6.85;2.00;;;;;;;19.04;59.96;102327.25;5023401;28;20033;-68
2021/04/05 08:09:26;;;;;;;10.00;2.00;;;;;;;19.03;59.80;102322.91;5024851;28;20033;-68
2021/04/05 08:11:57;;;;;;;7.22;2.13;;;;;;;19.04;59.87;102322.75;5028140;28;20503;-70
2021/04/05 08:14:35;;;;;;;5.28;2.03;;;;;;;19.04;60.07;102328.06;5026251;28;20037;-69
2021/04/05 08:17:26;;;;;;;9.10;2.28;;;;;;;19.06;59.80;102327.91;5024251;28;20049;-69
2021/04/05 08:19:56;;;;;;;10.02;2.42;;;;;;;19.06;59.67;102339.38;5009394;28;20131;-76
2021/04/05 08:22:39;;;;;;;6.63;1.52;;;;;;;19.05;59.71;102342.22;5025540;28;20037;-73
2021/04/05 08:25:44;;;;;;;5.22;1.58;;;;;;;19.06;60.02;102335.91;5025393;28;20045;-73
2021/04/05 08:28:36;;;;;;;7.75;1.85;;;;;;;19.05;59.68;102356.34;5032489;28;20037;-76
2021/04/05 08:31:29;;;;;;;8.88;1.60;;;;;;;19.06;59.65;102359.84;5017121;28;20037;-76
2021/04/05 08:34:12;;;;;;;6.63;1.67;;;;;;;19.08;59.52;102368.50;5021009;28;20067;-78
2021/04/05 08:36:46;;;;;;;5.63;1.75;;;;;;;19.06;59.59;102375.78;5028250;28;20064;-77
2021/04/05 08:39:30;;;;;;;9.90;1.48;;;;;;;19.07;59.29;102388.09;5023838;28;20029;-75
2021/04/05 08:42:09;;;;;;;3.65;1.40;;;;;;;19.07;59.46;102398.75;5026747;28;20037;-75
2021/04/05 08:44:52;;;;;;;7.57;2.33;;;;;;;19.05;58.47;102403.38;5019266;28;20041;-75
2021/04/05 08:47:41;;;;;;;10.55;1.88;;;;;;;19.03;58.34;102400.03;5030344;28;20137;-74
2021/04/05 08:50:10;;;;;;;9.90;1.73;;;;;;;19.05;58.40;102417.50;5028244;28;20203;-78
2021/04/05 08:52:43;;;;;;;14.15;1.90;;;;;;;19.06;58.42;102418.34;5027346;28;20112;-76
2021/04/05 08:55:14;;;;;;;9.50;1.70;;;;;;;19.06;58.02;102421.00;5031815;28;20037;-75
2021/04/05 08:57:47;;;;;;;9.52;1.50;;;;;;;19.05;57.54;102425.50;5023797;28;20041;-71
2021/04/05 09:00:14;;;;;;;12.25;2.35;;;;;;;19.06;57.70;102423.66;5042252;28;20033;-73
2021/04/05 09:02:50;;;;;;;7.38;1.98;;;;;;;19.06;57.59;102423.66;5041507;28;20056;-79
2021/04/05 09:05:20;;;;;;;8.02;1.83;;;;;;;19.07;57.53;102426.16;5030200;28;20071;-78
2021/04/05 09:08:12;;;;;;;8.70;1.70;;;;;;;19.03;57.60;102414.19;5026704;28;20026;-72
2021/04/05 09:10:47;;;;;;;8.55;1.90;;;;;;;19.07;57.21;102426.16;5024909;28;20061;-78
2021/04/05 09:13:21;;;;;;;8.35;1.90;;;;;;;19.06;56.88;102429.00;5025339;28;20094;-78
2021/04/05 09:16:12;;;;;;;6.97;1.93;;;;;;;19.04;56.72;102436.28;5029488;28;20025;-76
2021/04/05 09:19:16;;;;;;;7.57;1.73;;;;;;;19.03;56.72;102443.44;5027632;28;20053;-76
2021/04/05 09:22:03;;;;;;;10.63;2.25;;;;;;;19.05;56.39;102448.59;5025505;28;20037;-73
2021/04/05 09:24:41;;;;;;;8.88;2.05;;;;;;;19.04;56.03;102454.91;5027059;28;20042;-78
2021/04/05 09:27:18;;;;;;;7.10;2.03;;;;;;;19.02;55.78;102451.56;5026579;28;20038;-78
2021/04/05 09:30:02;;;;;;;8.70;2.17;;;;;;;19.02;55.81;102456.88;5029407;28;20142;-69
2021/04/05 09:32:59;;;;;;;6.53;2.25;;;;;;;18.99;55.60;102455.38;5036520;28;20472;-68
2021/04/05 09:35:47;;;;;;;16.27;2.45;;;;;;;18.97;55.99;102457.34;5013422;28;20056;-71
2021/04/05 09:38:33;;;;;;;9.05;3.08;;;;;;;18.98;56.02;102460.84;4992581;28;20405;-67
2021/04/05 09:41:29;;;;;;;11.80;2.40;;;;;;;18.99;56.27;102474.00;5028732;28;20558;-71
2021/04/05 09:44:26;;;;;;;6.80;2.03;;;;;;;18.98;55.69;102461.69;5029041;28;20034;-75
2021/04/05 09:47:19;;;;;;;11.20;2.00;;;;;;;18.97;54.76;102473.31;5012397;28;20423;-74
2021/04/05 09:50:10;;;;;;;9.25;1.83;;;;;;;18.93;53.39;102482.56;5031423;28;20045;-75
2021/04/05 09:52:54;;;;;;;5.35;1.75;;;;;;;18.89;53.03;102473.22;5017698;28;20488;-75
2021/04/05 09:55:28;;;;;;;7.30;1.83;;;;;;;18.83;51.41;102482.66;5030581;28;20088;-76
2021/04/05 09:58:07;;;;;;;5.75;1.40;;;;;;;18.76;50.27;102486.03;5016938;28;20056;-75
2021/04/05 10:00:34;;;;;;;8.43;1.80;;;;;;;18.72;49.89;102484.69;5029628;28;20053;-75
2021/04/05 10:03:04;;;;;;;4.32;1.70;;;;;;;18.64;48.49;102488.09;5030964;28;20164;-75
2021/04/05 10:05:33;;;;;;;8.13;1.80;;;;;;;18.55;47.85;102489.78;5030011;28;20044;-76
2021/04/05 10:08:00;;;;;;;5.22;1.55;;;;;;;18.50;46.57;102491.22;5034518;28;20037;-76
2021/04/05 10:10:27;;;;;;;5.55;1.77;;;;;;;18.42;46.12;102499.94;5030156;28;20051;-75
2021/04/05 10:12:55;;;;;;;7.25;2.03;;;;;;;18.34;45.06;102491.03;5034346;28;20120;-76
2021/04/05 10:15:28;;;;;;;5.25;1.70;;;;;;;18.24;44.71;102493.72;5012961;28;20774;-75
2021/04/05 10:18:00;;;;;;;6.38;1.35;;;;;;;18.20;44.17;102495.03;5033043;28;20057;-75
2021/04/05 10:20:31;;;;;;;6.53;1.58;;;;;;;18.14;44.05;102492.94;5029055;28;20030;-75
2021/04/05 10:23:05;;;;;;;4.45;1.23;;;;;;;18.10;43.53;102495.03;5028724;28;20039;-75
2021/04/05 10:25:31;;;;;;;4.13;1.42;;;;;;;18.07;43.55;102491.84;5028619;28;20026;-75
2021/04/05 10:27:59;;;;;;;5.43;1.58;;;;;;;18.03;42.94;102490.47;5032425;28;20033;-75
2021/04/05 10:30:32;;;;;;;4.38;1.60;;;;;;;17.96;42.50;102508.78;5028032;28;20037;-75
2021/04/05 10:33:03;;;;;;;4.45;1.63;;;;;;;17.92;42.08;102496.78;5034212;28;20400;-75
2021/04/05 10:35:31;;;;;;;4.13;1.38;;;;;;;17.89;42.00;102495.28;5012900;28;20032;-75
2021/04/05 10:37:57;;;;;;;3.67;1.45;;;;;;;17.85;41.91;102501.84;5029756;28;20452;-75
2021/04/05 10:40:23;;;;;;;2.85;1.33;;;;;;;17.82;41.81;102502.13;5025095;28;20121;-75
2021/04/05 10:42:52;;;;;;;5.18;1.60;;;;;;;17.79;41.38;102506.88;5029516;28;20154;-72
2021/04/05 10:45:20;;;;;;;5.30;1.25;;;;;;;17.75;41.48;102511.66;5029100;28;21043;-75
2021/04/05 10:47:53;;;;;;;7.00;2.10;;;;;;;17.73;41.24;102512.78;5030926;28;20022;-75
2021/04/05 10:50:25;;;;;;;6.72;1.73;;;;;;;17.71;40.93;102512.94;5030073;28;20028;-75
2021/04/05 10:52:52;;;;;;;5.93;1.45;;;;;;;17.70;40.49;102511.25;5030502;28;20076;-75
2021/04/05 10:55:25;;;;;;;5.03;1.40;;;;;;;17.65;39.61;102516.94;5029817;28;20041;-75
2021/04/05 10:58:02;;;;;;;5.00;1.17;;;;;;;17.61;39.42;102518.22;4999743;28;20361;-75
2021/04/05 11:00:35;;;;;;;5.75;1.40;;;;;;;17.58;39.62;102518.50;5011086;28;20037;-73
2021/04/05 11:03:23;;;;;;;6.72;1.50;;;;;;;17.56;39.40;102515.16;5021444;28;20037;-76
2021/04/05 11:05:56;;;;;;;5.93;1.58;;;;;;;17.53;39.25;102507.47;5028156;28;20037;-72
2021/04/05 11:08:28;;;;;;;4.78;1.20;;;;;;;17.53;39.09;102506.66;5030608;28;20120;-75
2021/04/05 11:11:08;;;;;;;5.47;1.50;;;;;;;17.51;39.23;102513.88;5027984;28;20108;-75
2021/04/05 11:13:39;;;;;;;4.22;1.25;;;;;;;17.50;38.84;102515.69;5029825;28;20090;-76
2021/04/05 11:16:13;;;;;;;5.03;1.52;;;;;;;17.48;38.85;102522.13;5028955;28;20099;-75
2021/04/05 11:18:47;;;;;;;3.95;1.58;;;;;;;17.45;38.57;102520.59;5030047;28;20080;-76
2021/04/05 11:21:16;;;;;;;4.25;1.55;;;;;;;17.44;38.44;102520.75;5009806;28;20068;-75
2021/04/05 11:23:42;;;;;;;3.75;1.30;;;;;;;17.41;38.31;102529.84;5037878;28;20045;-75
2021/04/05 11:26:09;;;;;;;5.90;1.40;;;;;;;17.41;38.25;102531.66;5028529;28;20041;-75
2021/04/05 11:28:37;;;;;;;5.38;1.50;;;;;;;17.39;37.77;102520.34;5028473;28;20037;-75
2021/04/05 11:31:09;;;;;;;5.78;1.45;;;;;;;17.36;37.71;102526.78;5029071;28;20059;-75
2021/04/05 11:33:42;;;;;;;7.25;1.52;;;;;;;17.34;37.55;102526.03;5029606;28;20072;-75
2021/04/05 11:36:09;;;;;;;4.55;1.50;;;;;;;17.32;37.64;102526.19;5033122;28;20060;-75
2021/04/05 11:38:48;;;;;;;3.50;1.33;;;;;;;17.29;37.35;102517.69;5038329;28;20060;-75
2021/04/05 11:41:17;;;;;;;6.50;1.70;;;;;;;17.30;37.52;102514.03;5029188;28;20033;-84
2021/04/05 11:43:48;;;;;;;4.63;1.30;;;;;;;17.30;37.30;102522.00;5022556;28;20118;-76
2021/04/05 11:46:15;;;;;;;7.45;1.58;;;;;;;17.31;37.79;102516.56;5025952;28;20040;-84
2021/04/05 11:48:42;;;;;;;13.65;1.75;;;;;;;17.35;38.42;102511.81;5000533;28;20121;-81
2021/04/05 11:51:10;;;;;;;10.00;2.10;;;;;;;17.39;38.88;102521.19;5028102;28;20044;-75
2021/04/05 11:53:45;;;;;;;9.13;1.50;;;;;;;17.44;39.42;102512.78;5037262;28;20037;-74
2021/04/05 11:56:13;;;;;;;11.38;2.20;;;;;;;17.49;39.60;102514.03;5038712;28;20035;-76
2021/04/05 11:58:44;;;;;;;7.60;1.95;;;;;;;17.54;40.16;102526.88;5041250;28;20128;-70